Time;durP1;ratioP1;P1;durP2;ratioP2;P2;SDS_P1;SDS_P2;PMS_P1;PMS_P2;Temp;Humidity;BMP_temperature;BMP_pressure;BME280_temperature;BME280_humidity;BME280_pressure;Samples;Min_cycle;Max_cycle;Signal;HPM_P1;HPM_P2
2023/07/16 00:00:32;;;;;;;7.70;4.50;;;;;;;24.92;39.57;100745.72;108003;1289;22030;-65
2023/07/16 00:02:58;;;;;;;9.10;4.30;;;;;;;24.89;39.72;100747.16;107991;1283;22034;-66
2023/07/16 00:05:23;;;;;;;10.80;3.80;;;;;;;24.81;39.85;100748.61;107989;1284;21992;-60
2023/07/16 00:07:49;;;;;;;8.90;4.90;;;;;;;24.72;40.15;100750.95;107978;1289;21955;-66
2023/07/16 00:10:14;;;;;;;9.60;4.40;;;;;;;24.71;40.05;100754.59;107860;1286;21993;-66
2023/07/16 00:12:40;;;;;;;11.70;4.50;;;;;;;24.66;40.20;100753.64;107965;1283;21991;-64
2023/07/16 00:15:06;;;;;;;15.10;4.60;;;;;;;24.61;40.20;100754.11;107980;1289;22037;-66
2023/07/16 00:17:33;;;;;;;19.00;5.10;;;;;;;24.58;40.41;100755.29;107962;1287;22290;-66
2023/07/16 00:19:59;;;;;;;12.00;4.20;;;;;;;24.55;40.43;100758.88;107983;1280;23828;-67
2023/07/16 00:22:24;;;;;;;10.40;5.00;;;;;;;24.54;40.60;100763.02;107984;1281;21994;-66
2023/07/16 00:24:50;;;;;;;7.80;4.10;;;;;;;24.53;40.55;100760.44;108013;1280;21998;-60
2023/07/16 00:27:16;;;;;;;8.60;4.10;;;;;;;24.52;40.51;100755.10;107982;1289;21999;-61
2023/07/16 00:29:41;;;;;;;7.60;3.90;;;;;;;24.49;40.79;100749.02;108053;1289;21993;-61
2023/07/16 00:32:07;;;;;;;6.00;4.00;;;;;;;24.46;40.74;100746.90;108009;1289;21985;-60
2023/07/16 00:34:32;;;;;;;9.70;4.10;;;;;;;24.44;40.93;100744.67;107974;1289;21999;-61
2023/07/16 00:37:01;;;;;;;7.90;4.50;;;;;;;24.42;40.87;100746.05;107997;1289;22001;-63
2023/07/16 00:39:30;;;;;;;7.30;4.00;;;;;;;24.41;40.86;100747.02;108021;1284;21990;-60
2023/07/16 00:41:55;;;;;;;11.30;4.60;;;;;;;24.40;40.98;100750.31;107982;1289;21993;-66
2023/07/16 00:44:21;;;;;;;8.90;4.30;;;;;;;24.39;41.09;100752.52;108008;1289;21992;-61
2023/07/16 00:46:47;;;;;;;10.90;4.20;;;;;;;24.33;41.12;100750.19;107974;1289;21996;-67
2023/07/16 00:49:13;;;;;;;10.60;4.20;;;;;;;24.30;41.18;100750.39;107739;1289;22000;-60
2023/07/16 00:51:39;;;;;;;9.70;4.00;;;;;;;24.31;41.28;100749.10;107757;1289;21989;-61
2023/07/16 00:54:04;;;;;;;8.50;4.60;;;;;;;24.35;41.24;100747.55;107852;1289;21990;-66
2023/07/16 00:56:31;;;;;;;10.30;4.50;;;;;;;24.39;41.15;100744.79;108002;1289;22104;-61
2023/07/16 00:58:57;;;;;;;7.90;4.10;;;;;;;24.42;41.08;100741.40;107971;1283;21990;-66
2023/07/16 01:01:23;;;;;;;7.60;4.50;;;;;;;24.44;41.03;100738.76;108029;1289;22622;-66
2023/07/16 01:03:49;;;;;;;12.70;4.40;;;;;;;24.43;41.11;100739.19;108029;1289;21992;-66
2023/07/16 01:06:30;;;;;;;12.90;4.60;;;;;;;24.41;41.05;100740.91;108087;1289;22013;-67
2023/07/16 01:09:04;;;;;;;13.40;4.70;;;;;;;24.37;41.37;100742.24;108105;1288;22032;-62
2023/07/16 01:11:30;;;;;;;7.60;4.00;;;;;;;24.33;41.34;100746.83;108112;1288;21989;-66
2023/07/16 01:13:56;;;;;;;10.90;4.30;;;;;;;24.29;41.27;100746.88;107814;1288;21992;-66
2023/07/16 01:16:23;;;;;;;8.00;4.10;;;;;;;24.26;41.39;100745.86;107817;1289;21964;-65
2023/07/16 01:18:49;;;;;;;13.60;4.20;;;;;;;24.23;41.34;100746.58;107999;1289;21998;-66
2023/07/16 01:21:19;;;;;;;7.50;4.50;;;;;;;24.21;41.32;100747.94;107993;1289;21995;-66
2023/07/16 01:23:50;;;;;;;8.40;4.60;;;;;;;24.20;41.57;100753.39;108031;1289;22037;-61
2023/07/16 01:26:50;;;;;;;9.20;4.50;;;;;;;24.16;41.58;100753.60;108015;1286;21992;-61
2023/07/16 01:29:20;;;;;;;12.30;4.60;;;;;;;24.13;41.43;100753.96;107962;1284;22030;-67
2023/07/16 01:31:46;;;;;;;11.00;4.70;;;;;;;24.10;41.56;100754.00;107986;1283;21993;-67
2023/07/16 01:34:12;;;;;;;11.40;4.50;;;;;;;24.04;41.66;100751.13;108028;1289;22050;-60
2023/07/16 01:36:37;;;;;;;7.10;4.20;;;;;;;24.00;41.83;100755.53;107858;1289;22034;-63
2023/07/16 01:39:03;;;;;;;11.60;4.90;;;;;;;23.97;41.78;100751.95;107937;1289;21989;-66
2023/07/16 01:41:28;;;;;;;12.20;4.40;;;;;;;23.96;41.83;100754.15;107825;1289;21992;-63
2023/07/16 01:43:54;;;;;;;9.80;3.70;;;;;;;23.96;41.95;100750.03;107957;1286;21980;-67
2023/07/16 01:46:20;;;;;;;9.60;4.70;;;;;;;23.94;42.04;100752.45;107966;1287;21991;-60
2023/07/16 01:48:47;;;;;;;9.80;4.40;;;;;;;23.91;41.91;100753.00;107982;1287;21993;-67
2023/07/16 01:51:14;;;;;;;10.30;4.40;;;;;;;23.89;41.79;100752.25;107981;1289;22166;-67
2023/07/16 01:53:40;;;;;;;9.60;4.30;;;;;;;23.84;42.15;100756.30;107981;1289;21994;-67
2023/07/16 01:56:06;;;;;;;8.50;3.80;;;;;;;23.80;42.19;100753.90;107985;1289;22002;-66
2023/07/16 01:58:32;;;;;;;8.40;4.00;;;;;;;23.77;41.98;100752.96;107968;1289;21994;-60
2023/07/16 02:00:57;;;;;;;10.60;4.50;;;;;;;23.75;42.05;100751.14;108045;1281;21995;-66
2023/07/16 02:03:23;;;;;;;11.20;4.50;;;;;;;23.72;42.19;100750.58;108034;1284;21997;-61
2023/07/16 02:05:49;;;;;;;9.90;4.30;;;;;;;23.70;42.43;100751.81;108010;1280;22043;-60
2023/07/16 02:08:14;;;;;;;9.80;4.40;;;;;;;23.68;42.61;100752.61;107969;1287;22031;-62
2023/07/16 02:10:40;;;;;;;11.40;4.30;;;;;;;23.65;42.68;100751.18;108034;1285;21992;-67
2023/07/16 02:13:06;;;;;;;7.50;4.80;;;;;;;23.62;42.67;100751.73;108035;1289;21993;-60
2023/07/16 02:15:32;;;;;;;11.50;5.00;;;;;;;23.60;42.67;100751.28;108021;1289;21975;-60
2023/07/16 02:17:58;;;;;;;9.70;4.60;;;;;;;23.58;42.56;100751.48;107996;1289;22191;-60
2023/07/16 02:20:24;;;;;;;16.90;4.30;;;;;;;23.55;42.74;100750.55;107992;1289;22033;-65
2023/07/16 02:22:49;;;;;;;22.30;4.50;;;;;;;23.54;42.82;100754.75;107949;1289;21992;-60
2023/07/16 02:25:15;;;;;;;17.10;4.60;;;;;;;23.53;43.02;100758.90;107992;1284;21995;-65
2023/07/16 02:27:41;;;;;;;15.70;5.00;;;;;;;23.51;43.15;100758.33;107994;1289;22000;-61
2023/07/16 02:30:07;;;;;;;7.40;4.70;;;;;;;23.50;43.12;100763.95;107992;1289;22214;-60
2023/07/16 02:32:34;;;;;;;11.40;4.40;;;;;;;23.48;43.13;100765.85;108029;1289;22467;-60
2023/07/16 02:35:00;;;;;;;10.90;4.60;;;;;;;23.43;43.47;100766.30;108016;1289;21981;-66
2023/07/16 02:37:26;;;;;;;9.20;4.20;;;;;;;23.40;43.55;100768.82;108033;1287;22455;-61
2023/07/16 02:39:51;;;;;;;11.20;4.20;;;;;;;23.39;43.52;100768.68;107972;1287;21997;-66
2023/07/16 02:42:17;;;;;;;8.00;4.40;;;;;;;23.39;43.47;100770.53;108007;1289;21990;-67
2023/07/16 02:44:44;;;;;;;8.40;4.90;;;;;;;23.40;43.65;100771.00;107982;1289;21998;-60
2023/07/16 02:47:10;;;;;;;12.80;4.80;;;;;;;23.41;43.66;100772.89;107984;1289;22000;-65
2023/07/16 02:49:36;;;;;;;9.60;4.40;;;;;;;23.40;43.74;100776.86;108022;1287;23019;-66
2023/07/16 02:52:02;;;;;;;7.30;4.90;;;;;;;23.40;43.99;100774.77;107990;1289;22001;-62
2023/07/16 02:54:28;;;;;;;10.40;4.90;;;;;;;23.40;44.03;100775.27;108046;1289;21995;-60
2023/07/16 02:56:53;;;;;;;7.70;3.80;;;;;;;23.41;44.12;100776.09;108018;1289;21994;-61
2023/07/16 02:59:19;;;;;;;9.10;4.60;;;;;;;23.43;43.97;100778.48;108011;1280;22015;-60
2023/07/16 03:01:44;;;;;;;6.90;4.40;;;;;;;23.45;44.09;100777.26;108026;1281;22031;-60
2023/07/16 03:04:10;;;;;;;7.40;4.20;;;;;;;23.48;44.15;100780.67;107992;1288;21992;-60
2023/07/16 03:06:36;;;;;;;10.30;5.30;;;;;;;23.51;44.03;100780.85;108007;1288;21999;-61
2023/07/16 03:09:02;;;;;;;11.60;5.20;;;;;;;23.55;44.08;100780.48;108064;1286;21992;-66
2023/07/16 03:11:28;;;;;;;8.80;4.40;;;;;;;23.66;43.92;100778.02;108136;1289;23715;-61
2023/07/16 03:13:54;;;;;;;7.90;4.10;;;;;;;23.67;43.92;100782.81;108066;1288;21989;-66
2023/07/16 03:16:19;;;;;;;7.30;3.80;;;;;;;23.71;44.13;100783.98;108061;1281;22042;-62
2023/07/16 03:18:45;;;;;;;8.30;4.50;;;;;;;23.74;44.12;100783.23;108090;1288;22043;-60
2023/07/16 03:21:11;;;;;;;10.30;4.00;;;;;;;23.81;44.11;100785.68;108140;1288;21992;-66
2023/07/16 03:23:37;;;;;;;10.10;4.40;;;;;;;23.88;44.32;100786.30;108159;1288;21994;-66
2023/07/16 03:26:03;;;;;;;7.60;4.70;;;;;;;23.95;44.28;100787.67;108069;1288;21993;-66
2023/07/16 03:28:29;;;;;;;7.70;4.60;;;;;;;24.02;44.34;100793.02;108080;1284;22163;-67
2023/07/16 03:30:54;;;;;;;9.70;4.20;;;;;;;24.10;44.26;100791.67;108579;1284;21993;-66
2023/07/16 03:33:20;;;;;;;8.10;3.80;;;;;;;24.16;44.41;100790.91;108122;1288;21990;-61
2023/07/16 03:35:46;;;;;;;12.30;4.20;;;;;;;24.23;44.48;100790.52;108046;1288;21997;-60
2023/07/16 03:38:13;;;;;;;8.20;4.50;;;;;;;24.30;44.53;100789.15;108115;1284;21998;-61
2023/07/16 03:40:38;;;;;;;8.50;4.30;;;;;;;24.38;44.45;100786.64;108102;1287;21993;-67
2023/07/16 03:43:04;;;;;;;13.30;4.70;;;;;;;24.47;44.52;100787.00;108118;1288;22146;-66
2023/07/16 03:45:30;;;;;;;10.20;4.80;;;;;;;24.56;44.52;100782.67;108087;1288;22005;-59
2023/07/16 03:47:56;;;;;;;9.70;4.30;;;;;;;24.66;44.53;100778.23;108137;1286;21985;-60
2023/07/16 03:50:21;;;;;;;13.10;4.70;;;;;;;24.77;44.40;100780.77;108109;1281;22000;-67
2023/07/16 03:52:47;;;;;;;5.80;3.80;;;;;;;24.88;44.41;100783.30;108027;1289;23030;-64
2023/07/16 03:55:13;;;;;;;11.10;4.20;;;;;;;25.00;44.31;100786.96;108068;1288;21993;-61
2023/07/16 03:57:40;;;;;;;8.40;4.40;;;;;;;25.13;44.34;100783.23;108103;1287;21993;-59
2023/07/16 04:00:08;;;;;;;7.30;4.70;;;;;;;25.24;44.32;100780.75;107973;1287;186995;-59
2023/07/16 04:02:35;;;;;;;8.60;4.10;;;;;;;25.34;44.32;100784.88;108104;1281;21991;-60
2023/07/16 04:05:01;;;;;;;10.90;4.70;;;;;;;25.46;44.20;100785.00;108123;1288;21997;-66
2023/07/16 04:07:27;;;;;;;10.90;4.90;;;;;;;25.57;44.07;100783.19;107354;1275;1002592;-60
2023/07/16 04:09:53;;;;;;;10.20;4.40;;;;;;;25.70;44.08;100786.99;108126;1288;22014;-67
2023/07/16 04:12:18;;;;;;;10.10;3.60;;;;;;;25.80;43.91;100787.20;108117;1287;22002;-59
2023/07/16 04:14:46;;;;;;;8.40;4.20;;;;;;;25.92;43.98;100784.19;108092;1288;21986;-66
2023/07/16 04:17:11;;;;;;;14.30;4.60;;;;;;;26.05;43.78;100787.79;108059;1288;22045;-60
2023/07/16 04:19:37;;;;;;;10.50;4.60;;;;;;;26.17;43.63;100787.65;108125;1288;22029;-60
2023/07/16 04:22:04;;;;;;;15.20;4.20;;;;;;;26.31;43.69;100787.53;108123;1277;22006;-61
2023/07/16 04:24:29;;;;;;;9.30;4.40;;;;;;;26.45;43.45;100785.27;108118;1288;23383;-66
2023/07/16 04:26:55;;;;;;;17.20;5.40;;;;;;;26.59;43.41;100788.95;108049;1288;21994;-60
2023/07/16 04:29:21;;;;;;;10.30;4.90;;;;;;;26.74;43.25;100786.23;108111;1287;22026;-68
2023/07/16 04:31:47;;;;;;;13.30;4.60;;;;;;;26.91;43.15;100785.70;107829;1288;22740;-62
2023/07/16 04:34:12;;;;;;;7.10;4.20;;;;;;;27.08;43.03;100784.99;108080;1285;21989;-60
2023/07/16 04:36:38;;;;;;;9.00;4.30;;;;;;;27.25;42.72;100782.84;108099;1289;21992;-67
2023/07/16 04:39:04;;;;;;;9.40;4.50;;;;;;;27.41;42.60;100781.80;108078;1288;21996;-67
2023/07/16 04:41:30;;;;;;;8.40;4.40;;;;;;;27.55;42.40;100784.70;108064;1288;22305;-60
2023/07/16 04:43:56;;;;;;;9.80;4.50;;;;;;;27.66;42.28;100787.47;108063;1284;21983;-60
2023/07/16 04:46:21;;;;;;;13.90;8.00;;;;;;;27.79;42.20;100793.30;108085;1288;21983;-65
2023/07/16 04:48:47;;;;;;;6.50;4.50;;;;;;;27.96;42.25;100791.78;108095;1284;22008;-67
2023/07/16 04:51:12;;;;;;;7.40;4.20;;;;;;;28.16;41.95;100795.33;108053;1285;21994;-67
2023/07/16 04:53:38;;;;;;;9.40;4.20;;;;;;;28.33;42.10;100796.25;108089;1289;21997;-66
2023/07/16 04:56:06;;;;;;;8.50;5.50;;;;;;;28.54;41.87;100793.15;108034;1288;21991;-66
2023/07/16 04:58:32;;;;;;;8.80;4.10;;;;;;;28.78;41.70;100789.54;108059;1288;21987;-60
2023/07/16 05:00:58;;;;;;;5.40;3.20;;;;;;;29.02;41.47;100787.06;108131;1288;21986;-67
2023/07/16 05:03:24;;;;;;;7.40;3.60;;;;;;;29.24;41.15;100791.52;108079;1288;22026;-60
2023/07/16 05:05:49;;;;;;;5.00;3.10;;;;;;;29.45;40.86;100789.04;108055;1284;21989;-67
2023/07/16 05:08:15;;;;;;;5.30;3.00;;;;;;;29.63;40.79;100790.92;108090;1288;21988;-67
2023/07/16 05:10:42;;;;;;;8.80;3.70;;;;;;;29.84;40.37;100791.30;108117;1286;22000;-61
2023/07/16 05:13:08;;;;;;;5.30;3.10;;;;;;;30.05;39.96;100791.31;108087;1288;21977;-66
2023/07/16 05:15:34;;;;;;;5.40;3.00;;;;;;;30.19;39.83;100790.98;108063;1288;22996;-62
2023/07/16 05:17:59;;;;;;;7.70;3.30;;;;;;;30.37;39.71;100791.23;108032;1288;21989;-67
2023/07/16 05:20:25;;;;;;;5.60;2.60;;;;;;;30.56;39.49;100794.77;108088;1289;22008;-60
2023/07/16 05:22:50;;;;;;;4.00;2.30;;;;;;;30.74;39.29;100794.77;108031;1288;21990;-67
2023/07/16 05:25:16;;;;;;;10.10;4.00;;;;;;;30.97;39.25;100797.02;108074;1288;21984;-60
2023/07/16 05:27:42;;;;;;;7.70;3.20;;;;;;;31.21;39.13;100799.20;108091;1283;21989;-60
2023/07/16 05:30:08;;;;;;;6.70;2.90;;;;;;;31.41;39.01;100800.59;108104;1288;21997;-67
2023/07/16 05:32:35;;;;;;;6.00;3.00;;;;;;;31.63;38.28;100798.77;108133;1288;22036;-66
2023/07/16 05:35:01;;;;;;;7.70;2.70;;;;;;;31.68;37.96;100798.45;107974;1288;21989;-60
2023/07/16 05:37:26;;;;;;;5.10;2.80;;;;;;;31.81;38.24;100800.14;108078;1288;21991;-60
2023/07/16 05:39:54;;;;;;;7.30;3.60;;;;;;;32.06;37.98;100803.73;108073;1288;21996;-66
2023/07/16 05:42:19;;;;;;;9.20;3.90;;;;;;;32.34;37.66;100801.89;108110;1283;21989;-61
2023/07/16 05:44:47;;;;;;;7.00;2.80;;;;;;;32.64;37.35;100801.89;108112;1288;21974;-66
2023/07/16 05:47:13;;;;;;;10.50;3.20;;;;;;;32.86;37.27;100802.48;108164;1283;21986;-66
2023/07/16 05:49:38;;;;;;;7.20;2.70;;;;;;;33.03;36.93;100801.48;108121;1283;21988;-60
2023/07/16 05:52:05;;;;;;;6.60;2.50;;;;;;;33.22;36.67;100799.92;108106;1288;21988;-66
2023/07/16 05:54:31;;;;;;;4.00;2.30;;;;;;;33.42;36.47;100799.04;108119;1280;22202;-66
2023/07/16 05:56:57;;;;;;;6.70;2.60;;;;;;;33.66;36.32;100798.95;108112;1288;21992;-66
2023/07/16 05:59:23;;;;;;;4.10;2.00;;;;;;;33.92;36.02;100797.14;108145;1288;21989;-65
2023/07/16 06:01:48;;;;;;;4.20;1.90;;;;;;;34.25;35.79;100796.45;108089;1288;21989;-65
2023/07/16 06:04:14;;;;;;;3.80;2.70;;;;;;;34.50;35.36;100796.55;108072;1284;21992;-58
2023/07/16 06:06:40;;;;;;;6.30;2.20;;;;;;;34.72;35.19;100795.45;108055;1288;21997;-61
2023/07/16 06:09:09;;;;;;;5.60;3.20;;;;;;;34.95;34.90;100794.38;108086;1277;22140;-65
2023/07/16 06:11:35;;;;;;;4.50;2.60;;;;;;;35.18;34.72;100793.04;108121;1288;23732;-61
2023/07/16 06:14:01;;;;;;;3.90;2.30;;;;;;;35.36;34.47;100796.09;108114;1287;21989;-65
2023/07/16 06:16:27;;;;;;;3.70;1.80;;;;;;;35.55;33.93;100799.32;108130;1288;21984;-66
2023/07/16 06:18:52;;;;;;;5.60;3.10;;;;;;;35.77;33.72;100800.55;108110;1288;21991;-67
2023/07/16 06:21:18;;;;;;;3.10;2.00;;;;;;;35.96;33.50;100798.95;108093;1288;22030;-67
2023/07/16 06:23:44;;;;;;;3.90;2.20;;;;;;;36.15;33.50;100800.30;108123;1288;22024;-61
2023/07/16 06:26:10;;;;;;;3.80;1.80;;;;;;;36.34;33.22;100797.89;107929;1283;21997;-61
2023/07/16 06:28:35;;;;;;;5.40;2.00;;;;;;;36.61;32.74;100799.75;108127;1288;21996;-63
2023/07/16 06:31:01;;;;;;;5.80;2.20;;;;;;;36.78;32.63;100804.09;108091;1288;22003;-59
2023/07/16 06:33:28;;;;;;;5.00;1.50;;;;;;;36.95;32.50;100805.78;108068;1288;21999;-60
2023/07/16 06:35:53;;;;;;;2.90;1.70;;;;;;;37.11;32.25;100806.79;108111;1288;21987;-59
2023/07/16 06:38:20;;;;;;;4.90;1.80;;;;;;;37.31;31.85;100809.09;108045;1288;21989;-66
2023/07/16 06:40:48;;;;;;;3.90;1.80;;;;;;;37.48;31.76;100804.80;108093;1288;22008;-65
2023/07/16 06:43:14;;;;;;;2.90;1.90;;;;;;;37.67;31.57;100808.44;108127;1284;21990;-64
2023/07/16 06:45:39;;;;;;;3.60;1.80;;;;;;;37.85;31.32;100807.07;108103;1288;21986;-65
2023/07/16 06:48:05;;;;;;;3.90;1.50;;;;;;;38.03;31.06;100810.67;108127;1288;21944;-64
2023/07/16 06:50:31;;;;;;;3.00;1.70;;;;;;;38.00;30.62;100813.42;108075;1288;22095;-65
2023/07/16 06:52:57;;;;;;;3.90;1.60;;;;;;;37.98;30.67;100811.63;108083;1286;21997;-65
2023/07/16 06:55:23;;;;;;;5.60;1.50;;;;;;;38.23;30.34;100810.52;108134;1288;21990;-65
2023/07/16 06:57:49;;;;;;;8.20;2.40;;;;;;;38.46;29.97;100809.70;108064;1288;21990;-65
2023/07/16 07:00:15;;;;;;;3.20;1.50;;;;;;;38.67;30.10;100808.27;108134;1288;21988;-61
2023/07/16 07:02:41;;;;;;;3.90;2.00;;;;;;;38.94;29.82;100806.89;108166;1284;22026;-66
2023/07/16 07:05:07;;;;;;;2.00;1.50;;;;;;;39.13;29.58;100804.15;108090;1288;21998;-66
2023/07/16 07:07:33;;;;;;;2.00;1.40;;;;;;;39.24;29.50;100800.69;108137;1283;21997;-64
2023/07/16 07:09:59;;;;;;;6.70;1.80;;;;;;;39.40;29.25;100798.55;108073;1288;21984;-67
2023/07/16 07:12:25;;;;;;;7.90;2.00;;;;;;;39.55;29.00;100799.98;108054;1288;21995;-67
2023/07/16 07:14:52;;;;;;;3.80;1.60;;;;;;;39.57;28.32;100797.71;108079;1288;22011;-62
2023/07/16 07:17:20;;;;;;;4.20;1.30;;;;;;;39.54;28.63;100798.52;108080;1288;21994;-67
2023/07/16 07:19:46;;;;;;;10.80;1.70;;;;;;;39.69;28.59;100802.49;108073;1284;23395;-66
2023/07/16 07:22:11;;;;;;;6.40;1.70;;;;;;;39.85;28.53;100803.34;108107;1288;21993;-62
2023/07/16 07:24:37;;;;;;;2.70;1.50;;;;;;;39.94;28.53;100800.00;108070;1284;21988;-62
2023/07/16 07:27:03;;;;;;;5.90;2.00;;;;;;;40.08;28.32;100798.33;108112;1288;21983;-67
2023/07/16 07:29:29;;;;;;;8.10;1.70;;;;;;;40.10;27.12;100798.39;108150;1280;21989;-62
2023/07/16 07:31:55;;;;;;;7.00;1.70;;;;;;;40.13;27.67;100804.63;108026;1288;21998;-62
2023/07/16 07:34:20;;;;;;;2.60;1.40;;;;;;;40.29;27.87;100803.45;108101;1283;21986;-66
2023/07/16 07:36:46;;;;;;;3.30;1.90;;;;;;;40.49;27.61;100807.39;107989;1288;21995;-67
2023/07/16 07:39:14;;;;;;;4.20;1.70;;;;;;;40.60;27.22;100812.35;107969;1288;21995;-63
2023/07/16 07:41:40;;;;;;;5.30;1.90;;;;;;;40.68;26.40;100805.98;109977;1288;21930;-61
2023/07/16 07:44:06;;;;;;;5.00;1.40;;;;;;;40.51;25.55;100807.10;108841;1280;23268;-64
2023/07/16 07:46:32;;;;;;;4.60;2.40;;;;;;;40.39;25.87;100806.90;108291;1288;21982;-65
2023/07/16 07:48:58;;;;;;;4.60;1.80;;;;;;;40.36;25.93;100804.38;108016;1284;23106;-62
2023/07/16 07:51:23;;;;;;;2.70;1.60;;;;;;;40.42;26.41;100805.36;108100;1288;21992;-62
2023/07/16 07:53:49;;;;;;;4.20;1.50;;;;;;;40.67;26.37;100804.66;108075;1288;22099;-62
2023/07/16 07:56:15;;;;;;;4.30;1.80;;;;;;;40.94;26.21;100803.87;108037;1283;22453;-65
2023/07/16 07:58:40;;;;;;;3.80;1.60;;;;;;;41.06;25.59;100804.73;108093;1280;22025;-66
2023/07/16 08:01:07;;;;;;;4.90;2.00;;;;;;;41.08;25.71;100801.70;108045;1288;22274;-66
2023/07/16 08:03:36;;;;;;;8.70;2.50;;;;;;;41.22;26.20;100806.75;108509;1288;21985;-61
2023/07/16 08:06:02;;;;;;;3.60;2.10;;;;;;;41.56;26.17;100803.73;108521;1288;22005;-62
2023/07/16 08:08:29;;;;;;;4.30;2.40;;;;;;;41.85;25.18;100798.29;108158;1288;22061;-67
2023/07/16 08:10:55;;;;;;;8.90;2.70;;;;;;;41.75;23.23;100797.12;108062;1287;22381;-63
2023/07/16 08:13:21;;;;;;;3.60;2.00;;;;;;;41.35;23.20;100798.98;108057;1288;21989;-62
2023/07/16 08:15:50;;;;;;;5.90;2.30;;;;;;;41.12;24.36;100803.85;108068;1288;21992;-66
2023/07/16 08:18:16;;;;;;;8.90;3.00;;;;;;;41.32;25.19;100798.51;108081;1289;22002;-66
2023/07/16 08:20:42;;;;;;;3.60;2.30;;;;;;;41.68;25.15;100802.77;108121;1288;22023;-65
2023/07/16 08:23:07;;;;;;;6.10;2.50;;;;;;;41.90;24.72;100806.77;108077;1287;22026;-66
2023/07/16 08:25:33;;;;;;;7.90;3.50;;;;;;;42.10;24.61;100809.70;108098;1280;22036;-62
2023/07/16 08:28:02;;;;;;;6.90;2.30;;;;;;;42.26;24.19;100801.00;108091;1284;22160;-67
2023/07/16 08:30:27;;;;;;;3.60;2.20;;;;;;;42.43;24.48;100800.31;108132;1288;22021;-66
2023/07/16 08:32:53;;;;;;;9.20;3.80;;;;;;;42.69;24.22;100801.52;108078;1286;21998;-63
2023/07/16 08:35:19;;;;;;;3.20;1.90;;;;;;;42.80;23.83;100804.39;108071;1287;21998;-62
2023/07/16 08:37:45;;;;;;;4.20;2.00;;;;;;;42.66;23.37;100803.45;108107;1283;21990;-67
2023/07/16 08:40:12;;;;;;;4.80;2.00;;;;;;;42.69;23.79;100802.66;108180;1288;22024;-62
2023/07/16 08:42:39;;;;;;;3.90;2.00;;;;;;;43.02;23.61;100798.88;108011;1288;22002;-62
2023/07/16 08:45:11;;;;;;;6.00;3.00;;;;;;;43.14;22.93;100797.08;108068;1284;23066;-64
2023/07/16 08:47:37;;;;;;;3.00;1.80;;;;;;;43.09;22.53;100799.64;108088;1284;22001;-62
2023/07/16 08:50:06;;;;;;;4.10;2.20;;;;;;;43.02;22.94;100800.55;108083;1288;22004;-66
2023/07/16 08:52:32;;;;;;;3.60;1.70;;;;;;;42.99;22.76;100800.27;108126;1288;22034;-63
2023/07/16 08:54:57;;;;;;;4.70;1.90;;;;;;;43.19;23.16;100796.98;108118;1288;22045;-68
2023/07/16 08:57:23;;;;;;;3.50;2.00;;;;;;;43.52;22.72;100793.48;108077;1283;22024;-63
2023/07/16 08:59:49;;;;;;;4.60;1.80;;;;;;;43.75;22.48;100796.25;108061;1280;22000;-67
2023/07/16 09:02:19;;;;;;;3.10;1.90;;;;;;;43.96;22.71;100792.35;108075;1288;21947;-63
2023/07/16 09:04:48;;;;;;;5.60;2.30;;;;;;;44.20;22.67;100788.70;108182;1288;21986;-62
2023/07/16 09:07:15;;;;;;;3.20;2.40;;;;;;;44.42;21.08;100787.77;108076;1288;21989;-68
2023/07/16 09:09:41;;;;;;;7.10;2.70;;;;;;;44.30;20.85;100786.69;108164;1288;22027;-68
2023/07/16 09:12:11;;;;;;;6.40;2.70;;;;;;;44.16;21.12;100784.66;108102;1288;22007;-65
2023/07/16 09:14:41;;;;;;;4.60;2.60;;;;;;;43.96;20.57;100789.28;108143;1288;21987;-63
2023/07/16 09:17:07;;;;;;;6.90;3.00;;;;;;;43.72;20.92;100780.89;108141;1283;22021;-63
2023/07/16 09:19:35;;;;;;;3.90;2.50;;;;;;;43.52;20.89;100781.09;108081;1288;22004;-67
2023/07/16 09:22:01;;;;;;;3.70;2.50;;;;;;;43.51;21.43;100780.08;107843;1288;21986;-68
2023/07/16 09:24:27;;;;;;;5.20;2.70;;;;;;;43.73;21.50;100783.91;108153;1286;21988;-68
2023/07/16 09:26:53;;;;;;;7.30;2.20;;;;;;;43.81;21.20;100783.10;107845;1287;22157;-63
2023/07/16 09:29:19;;;;;;;6.00;2.80;;;;;;;43.77;20.87;100779.27;108115;1288;21985;-64
2023/07/16 09:31:56;;;;;;;4.50;2.50;;;;;;;43.75;21.20;100780.95;108116;1288;22039;-66
2023/07/16 09:34:22;;;;;;;5.60;2.40;;;;;;;43.86;21.10;100788.64;108188;1288;21991;-67
2023/07/16 09:36:49;;;;;;;3.20;2.20;;;;;;;44.02;20.82;100788.33;108119;1288;21999;-64
2023/07/16 09:39:18;;;;;;;3.50;2.30;;;;;;;44.10;20.53;100784.91;108138;1278;22104;-64
2023/07/16 09:41:48;;;;;;;6.20;2.50;;;;;;;44.15;20.74;100787.67;108139;1277;21987;-64
2023/07/16 09:44:15;;;;;;;3.70;2.40;;;;;;;44.33;21.02;100784.78;108134;1288;21989;-63
2023/07/16 09:46:41;;;;;;;7.00;2.70;;;;;;;44.57;20.91;100781.59;108136;1288;21982;-68
2023/07/16 09:49:08;;;;;;;4.80;2.70;;;;;;;44.87;20.93;100784.58;108131;1287;22021;-64
2023/07/16 09:51:35;;;;;;;6.50;2.50;;;;;;;44.92;20.24;100780.67;108120;1277;21987;-67
2023/07/16 09:54:01;;;;;;;7.30;2.40;;;;;;;44.81;20.05;100778.38;108103;1281;21990;-64
2023/07/16 09:56:29;;;;;;;5.30;2.20;;;;;;;44.81;20.18;100774.27;108122;1288;21996;-65
2023/07/16 09:58:55;;;;;;;5.20;2.50;;;;;;;44.77;20.02;100773.55;108121;1288;22035;-65
2023/07/16 10:01:21;;;;;;;3.20;2.10;;;;;;;44.77;20.22;100770.06;107844;1288;21987;-64
2023/07/16 10:03:50;;;;;;;3.40;1.90;;;;;;;44.75;20.16;100772.40;107857;1288;22004;-67
2023/07/16 10:06:16;;;;;;;3.10;2.30;;;;;;;44.73;19.49;100764.36;108103;1287;21989;-68
2023/07/16 10:08:48;;;;;;;2.80;2.10;;;;;;;44.53;19.49;100765.14;108038;1286;21989;-63
2023/07/16 10:11:17;;;;;;;3.70;2.10;;;;;;;44.41;20.26;100760.38;108134;1284;23663;-64
2023/07/16 10:13:48;;;;;;;3.10;2.20;;;;;;;44.71;20.43;100753.59;108083;1287;23047;-67
2023/07/16 10:16:27;;;;;;;4.40;2.30;;;;;;;45.14;20.39;100757.39;108105;1284;21997;-67
2023/07/16 10:18:53;;;;;;;4.90;2.60;;;;;;;45.28;19.68;100758.86;108112;1288;21986;-65
2023/07/16 10:21:25;;;;;;;2.50;1.80;;;;;;;45.18;19.79;100762.53;108070;1288;21992;-63
2023/07/16 10:23:58;;;;;;;4.90;1.80;;;;;;;45.13;19.94;100757.09;108067;1288;21991;-61
2023/07/16 10:26:28;;;;;;;5.10;2.10;;;;;;;45.22;20.19;100756.54;108142;1286;23766;-65
2023/07/16 10:28:54;;;;;;;3.20;2.40;;;;;;;45.23;19.20;100749.77;108115;1278;21991;-61
2023/07/16 10:31:21;;;;;;;5.20;2.30;;;;;;;45.18;18.81;100752.27;108128;1288;22160;-67
2023/07/16 10:33:58;;;;;;;4.50;2.40;;;;;;;45.10;18.97;100753.91;108108;1288;21990;-66
2023/07/16 10:36:23;;;;;;;3.70;2.40;;;;;;;45.04;18.87;100749.48;108126;1288;21997;-62
2023/07/16 10:38:49;;;;;;;5.10;2.80;;;;;;;45.05;18.80;100748.23;108095;1287;21993;-61
2023/07/16 10:41:15;;;;;;;4.00;2.20;;;;;;;45.25;19.03;100745.62;108088;1284;21995;-65
2023/07/16 10:43:41;;;;;;;3.30;2.10;;;;;;;45.45;19.04;100747.45;107831;1288;21956;-66
2023/07/16 10:46:06;;;;;;;5.20;2.20;;;;;;;45.57;19.13;100746.77;107835;1288;21986;-66
2023/07/16 10:48:32;;;;;;;4.80;2.60;;;;;;;45.75;18.57;100741.79;107835;1276;21992;-65
2023/07/16 10:50:58;;;;;;;4.10;2.70;;;;;;;45.79;18.21;100739.88;108020;1288;21988;-62
2023/07/16 10:53:23;;;;;;;4.30;2.60;;;;;;;45.84;18.95;100741.61;108072;1288;22092;-66
2023/07/16 10:55:49;;;;;;;6.30;2.80;;;;;;;45.93;18.38;100737.55;108104;1288;21994;-66
2023/07/16 10:58:15;;;;;;;4.20;2.30;;;;;;;45.87;18.01;100732.31;108116;1286;21987;-62
2023/07/16 11:00:40;;;;;;;9.50;3.00;;;;;;;45.62;17.60;100735.44;107918;1286;23675;-63
2023/07/16 11:03:07;;;;;;;5.60;2.70;;;;;;;45.37;18.24;100735.71;108067;1288;22758;-66
2023/07/16 11:05:33;;;;;;;22.00;5.00;;;;;;;45.30;18.00;100735.80;108093;1288;21993;-66
2023/07/16 11:07:58;;;;;;;7.90;3.00;;;;;;;45.30;17.96;100738.51;108077;1284;22082;-66
2023/07/16 11:10:25;;;;;;;4.30;2.50;;;;;;;45.23;17.92;100735.33;108084;1284;21993;-63